Time;durP1;ratioP1;P1;durP2;ratioP2;P2;SDS_P1;SDS_P2;PMS_P1;PMS_P2;Temp;Humidity;BMP_temperature;BMP_pressure;BME280_temperature;BME280_humidity;BME280_pressure;Samples;Min_cycle;Max_cycle;Signal;HPM_P1;HPM_P2
2021/12/27 00:00:45;;;;;;;3.55;2.88;;;;;;;;;;5092437;28;20231;-45
2021/12/27 00:03:12;;;;;;;3.47;2.90;;;;;;;;;;5108091;28;20268;-45
2021/12/27 00:05:38;;;;;;;3.13;2.60;;;;;;;;;;5101109;28;20542;-45
2021/12/27 00:08:04;;;;;;;4.90;3.00;;;;;;;;;;5100297;28;20256;-45
2021/12/27 00:10:30;;;;;;;3.75;2.75;;;;;;;;;;5108595;28;20177;-44
2021/12/27 00:12:57;;;;;;;3.45;2.80;;;;;;;;;;5097132;28;20665;-44
2021/12/27 00:15:23;;;;;;;3.03;2.67;;;;;;;;;;5105859;28;20173;-44
2021/12/27 00:17:49;;;;;;;4.05;2.40;;;;;;;;;;5100834;28;20268;-44
2021/12/27 00:20:18;;;;;;;3.25;2.88;;;;;;;;;;5104243;28;20207;-45
2021/12/27 00:22:45;;;;;;;3.10;2.42;;;;;;;;;;5105641;28;20232;-44
2021/12/27 00:25:11;;;;;;;3.17;2.40;;;;;;;;;;5099778;28;20197;-45
2021/12/27 00:27:37;;;;;;;2.70;2.42;;;;;;;;;;5095637;28;20178;-45
2021/12/27 00:30:04;;;;;;;2.97;2.60;;;;;;;;;;5102956;28;20493;-45
2021/12/27 00:32:30;;;;;;;2.97;2.67;;;;;;;;;;5097017;28;20576;-45
2021/12/27 00:34:56;;;;;;;3.10;2.35;;;;;;;;;;5094193;28;20185;-45
2021/12/27 00:37:22;;;;;;;2.92;2.35;;;;;;;;;;5107817;28;20558;-44
2021/12/27 00:39:47;;;;;;;3.38;2.58;;;;;;;;;;5104375;28;20185;-45
2021/12/27 00:42:14;;;;;;;3.25;2.33;;;;;;;;;;5102287;28;20188;-45
2021/12/27 00:44:39;;;;;;;2.58;2.38;;;;;;;;;;5107909;28;20185;-45
2021/12/27 00:47:06;;;;;;;3.03;2.38;;;;;;;;;;5112387;28;20265;-45
2021/12/27 00:49:32;;;;;;;3.88;2.40;;;;;;;;;;5118302;27;20625;-44
2021/12/27 00:51:58;;;;;;;2.50;2.08;;;;;;;;;;5106874;28;20205;-44
2021/12/27 00:54:24;;;;;;;2.53;2.33;;;;;;;;;;5117865;27;20173;-44
2021/12/27 00:56:50;;;;;;;3.70;2.70;;;;;;;;;;5123796;27;20181;-44
2021/12/27 00:59:16;;;;;;;3.10;2.40;;;;;;;;;;5118600;27;20185;-45
2021/12/27 01:01:42;;;;;;;2.63;2.35;;;;;;;;;;5124429;27;20204;-44
2021/12/27 01:04:08;;;;;;;2.70;2.40;;;;;;;;;;5116108;27;20290;-44
2021/12/27 01:06:34;;;;;;;3.30;2.38;;;;;;;;;;5116606;27;20234;-44
2021/12/27 01:09:00;;;;;;;2.20;2.00;;;;;;;;;;5116615;27;20187;-45
2021/12/27 01:14:03;;;;;;;2.63;2.10;;;;;;;;;;5125147;27;20188;-45
2021/12/27 01:16:30;;;;;;;3.10;2.40;;;;;;;;;;5116338;27;20169;-44
2021/12/27 01:18:56;;;;;;;2.30;2.10;;;;;;;;;;5117836;27;20178;-44
2021/12/27 01:21:23;;;;;;;2.65;2.00;;;;;;;;;;5116544;27;20183;-45
2021/12/27 01:23:50;;;;;;;2.58;2.38;;;;;;;;;;5126511;27;20185;-45
2021/12/27 01:26:16;;;;;;;2.42;2.22;;;;;;;;;;5128278;27;20192;-45
2021/12/27 01:28:42;;;;;;;2.33;2.05;;;;;;;;;;5126934;27;20192;-45
2021/12/27 01:31:08;;;;;;;2.38;2.17;;;;;;;;;;5118535;27;20192;-44
2021/12/27 01:33:34;;;;;;;2.63;2.30;;;;;;;;;;5120049;27;20188;-45
2021/12/27 01:36:01;;;;;;;2.33;2.00;;;;;;;;;;5114042;28;20544;-44
2021/12/27 01:38:27;;;;;;;2.40;2.20;;;;;;;;;;5117010;27;20193;-44
2021/12/27 01:40:55;;;;;;;2.40;2.20;;;;;;;;;;5123563;27;20181;-44
2021/12/27 01:43:26;;;;;;;2.55;2.22;;;;;;;;;;5116773;27;20318;-44
2021/12/27 01:46:00;;;;;;;2.30;2.13;;;;;;;;;;5111617;27;20173;-45
2021/12/27 01:48:30;;;;;;;2.38;2.17;;;;;;;;;;5097467;28;20193;-45
2021/12/27 01:50:56;;;;;;;2.25;2.05;;;;;;;;;;5092410;28;20178;-45
2021/12/27 01:53:24;;;;;;;2.22;1.90;;;;;;;;;;5093036;28;20571;-45
2021/12/27 01:55:50;;;;;;;2.78;2.10;;;;;;;;;;5093594;28;20182;-44
2021/12/27 01:58:16;;;;;;;2.40;2.10;;;;;;;;;;5091810;28;20182;-44
2021/12/27 02:00:43;;;;;;;2.08;1.88;;;;;;;;;;5094196;28;20198;-45
2021/12/27 02:03:09;;;;;;;2.40;2.15;;;;;;;;;;5074486;28;20208;-45
2021/12/27 02:05:36;;;;;;;3.10;2.20;;;;;;;;;;5093301;28;20182;-44
2021/12/27 02:08:03;;;;;;;2.08;1.88;;;;;;;;;;5094077;28;20638;-44
2021/12/27 02:10:29;;;;;;;2.28;1.90;;;;;;;;;;5090392;28;20185;-45
2021/12/27 02:12:55;;;;;;;2.40;2.08;;;;;;;;;;5092749;28;20201;-45
2021/12/27 02:15:21;;;;;;;2.05;1.85;;;;;;;;;;5091638;28;20572;-44
2021/12/27 02:17:47;;;;;;;2.25;2.05;;;;;;;;;;5093281;28;20504;-45
2021/12/27 02:20:21;;;;;;;2.53;2.03;;;;;;;;;;5093810;28;20213;-44
2021/12/27 02:22:47;;;;;;;2.15;1.88;;;;;;;;;;5089374;28;20186;-45
2021/12/27 02:25:14;;;;;;;2.58;2.17;;;;;;;;;;5089300;28;20231;-44
2021/12/27 02:27:40;;;;;;;2.55;1.90;;;;;;;;;;5092714;28;20474;-44
2021/12/27 02:30:07;;;;;;;2.55;1.98;;;;;;;;;;5091281;28;20186;-45
2021/12/27 02:32:33;;;;;;;2.58;2.20;;;;;;;;;;5091895;28;20252;-45
2021/12/27 02:34:59;;;;;;;2.72;2.15;;;;;;;;;;5092318;28;20648;-45
2021/12/27 02:37:25;;;;;;;2.30;1.90;;;;;;;;;;5092964;28;20280;-45
2021/12/27 02:39:51;;;;;;;2.15;1.95;;;;;;;;;;5091953;28;20445;-44
2021/12/27 02:42:18;;;;;;;2.28;2.08;;;;;;;;;;5093388;28;20229;-44
2021/12/27 02:44:44;;;;;;;2.38;2.10;;;;;;;;;;5088981;28;20177;-44
2021/12/27 02:47:11;;;;;;;1.95;1.77;;;;;;;;;;5091712;28;20201;-45
2021/12/27 02:49:37;;;;;;;1.98;1.80;;;;;;;;;;5091219;28;20197;-45
2021/12/27 02:52:03;;;;;;;2.85;2.00;;;;;;;;;;5092573;28;20205;-45
2021/12/27 02:54:29;;;;;;;2.03;1.83;;;;;;;;;;5087666;28;20209;-45
2021/12/27 02:56:55;;;;;;;2.10;1.90;;;;;;;;;;5091634;28;20577;-45
2021/12/27 02:59:21;;;;;;;2.20;2.00;;;;;;;;;;5092869;28;20347;-45
2021/12/27 03:01:47;;;;;;;2.03;1.83;;;;;;;;;;5092371;28;20206;-45
2021/12/27 03:04:13;;;;;;;1.77;1.67;;;;;;;;;;5090384;28;20189;-44
2021/12/27 03:06:39;;;;;;;2.30;1.88;;;;;;;;;;5092299;28;20192;-45
2021/12/27 03:09:05;;;;;;;1.75;1.65;;;;;;;;;;5093197;28;20450;-45
2021/12/27 03:11:31;;;;;;;2.50;2.00;;;;;;;;;;5092947;28;20205;-45
2021/12/27 03:13:56;;;;;;;2.70;2.08;;;;;;;;;;5083827;28;20213;-44
2021/12/27 03:16:23;;;;;;;1.73;1.60;;;;;;;;;;5086304;28;20453;-44
2021/12/27 03:18:51;;;;;;;3.80;1.95;;;;;;;;;;5091278;28;20189;-45
2021/12/27 03:21:17;;;;;;;3.70;1.88;;;;;;;;;;5092573;28;20196;-45
2021/12/27 03:23:44;;;;;;;2.30;1.90;;;;;;;;;;5092233;28;20246;-44
2021/12/27 03:26:11;;;;;;;2.30;1.95;;;;;;;;;;5090520;28;20189;-45
2021/12/27 03:28:37;;;;;;;2.83;2.08;;;;;;;;;;5092553;28;20204;-45
2021/12/27 03:31:04;;;;;;;2.28;1.70;;;;;;;;;;5092675;28;20198;-45
2021/12/27 03:33:31;;;;;;;1.88;1.75;;;;;;;;;;5091278;28;20186;-45
2021/12/27 03:36:05;;;;;;;3.20;1.75;;;;;;;;;;5091131;28;20197;-45
2021/12/27 03:38:39;;;;;;;2.42;1.95;;;;;;;;;;5092229;28;20709;-45
2021/12/27 03:41:06;;;;;;;3.03;1.98;;;;;;;;;;5092047;28;20594;-44
2021/12/27 03:43:32;;;;;;;4.07;2.00;;;;;;;;;;5095538;28;20186;-42
2021/12/27 03:45:58;;;;;;;1.98;1.75;;;;;;;;;;5093621;28;20564;-42
2021/12/27 03:48:24;;;;;;;1.73;1.63;;;;;;;;;;5094343;28;20207;-42
2021/12/27 03:50:50;;;;;;;2.00;1.90;;;;;;;;;;5095713;28;20181;-42
2021/12/27 03:53:16;;;;;;;1.63;1.52;;;;;;;;;;5096019;28;20622;-43
2021/12/27 03:55:42;;;;;;;2.95;1.80;;;;;;;;;;5095445;28;20189;-42
2021/12/27 03:58:11;;;;;;;2.03;1.67;;;;;;;;;;5095478;28;20787;-42
2021/12/27 04:03:11;;;;;;;2.03;1.67;;;;;;;;;;5096515;28;20232;-42
2021/12/27 04:05:37;;;;;;;1.95;1.75;;;;;;;;;;5093952;28;20186;-42
2021/12/27 04:08:09;;;;;;;2.60;1.95;;;;;;;;;;5092905;28;20174;-42
2021/12/27 04:10:35;;;;;;;2.22;1.75;;;;;;;;;;5096743;28;20680;-42
2021/12/27 04:13:01;;;;;;;1.45;1.35;;;;;;;;;;5096071;28;20237;-42
2021/12/27 04:15:27;;;;;;;1.90;1.80;;;;;;;;;;5094215;28;20209;-42
2021/12/27 04:17:53;;;;;;;1.67;1.50;;;;;;;;;;5093726;28;20177;-42
2021/12/27 04:20:20;;;;;;;1.73;1.40;;;;;;;;;;5095162;28;20595;-42
2021/12/27 04:22:46;;;;;;;2.08;1.65;;;;;;;;;;5092552;28;20197;-42
2021/12/27 04:25:12;;;;;;;1.70;1.55;;;;;;;;;;5092889;28;20189;-42
2021/12/27 04:27:38;;;;;;;2.47;1.85;;;;;;;;;;5095000;28;20193;-42
2021/12/27 04:30:04;;;;;;;1.90;1.70;;;;;;;;;;5095188;28;20185;-42
2021/12/27 04:32:30;;;;;;;1.80;1.65;;;;;;;;;;5091674;28;21667;-42
2021/12/27 04:34:57;;;;;;;1.73;1.63;;;;;;;;;;5094158;28;20197;-42
2021/12/27 04:37:23;;;;;;;2.00;1.90;;;;;;;;;;5095238;28;20185;-42
2021/12/27 04:39:49;;;;;;;1.70;1.58;;;;;;;;;;5093227;28;20446;-42
2021/12/27 04:42:15;;;;;;;1.75;1.50;;;;;;;;;;5083704;28;20186;-42
2021/12/27 04:44:41;;;;;;;1.60;1.50;;;;;;;;;;5094020;28;20513;-42
2021/12/27 04:47:08;;;;;;;2.00;1.75;;;;;;;;;;5093826;28;20633;-42
2021/12/27 04:49:34;;;;;;;1.83;1.70;;;;;;;;;;5093266;28;20213;-42
2021/12/27 04:52:00;;;;;;;1.80;1.50;;;;;;;;;;5088398;28;20520;-42
2021/12/27 04:54:26;;;;;;;1.70;1.60;;;;;;;;;;5091851;28;20190;-42
2021/12/27 04:56:52;;;;;;;1.85;1.52;;;;;;;;;;5095266;28;20184;-42
2021/12/27 04:59:18;;;;;;;3.05;1.70;;;;;;;;;;5076616;28;20563;-42
2021/12/27 05:01:44;;;;;;;1.50;1.40;;;;;;;;;;5094463;28;20236;-41
2021/12/27 05:04:10;;;;;;;1.60;1.50;;;;;;;;;;5092772;28;20549;-42
2021/12/27 05:06:36;;;;;;;3.38;1.70;;;;;;;;;;5092589;28;20204;-42
2021/12/27 05:09:02;;;;;;;1.70;1.50;;;;;;;;;;5089062;28;20179;-42
2021/12/27 05:11:30;;;;;;;1.60;1.50;;;;;;;;;;5093910;28;20647;-42
2021/12/27 05:13:56;;;;;;;1.65;1.50;;;;;;;;;;5094859;28;20189;-42
2021/12/27 05:16:22;;;;;;;1.88;1.73;;;;;;;;;;5088736;28;20456;-42
2021/12/27 05:18:48;;;;;;;1.92;1.70;;;;;;;;;;5094880;28;20174;-42
2021/12/27 05:21:14;;;;;;;1.70;1.60;;;;;;;;;;5094240;28;20190;-42
2021/12/27 05:23:40;;;;;;;1.63;1.52;;;;;;;;;;5093301;28;20230;-42
2021/12/27 05:26:06;;;;;;;1.75;1.65;;;;;;;;;;5092380;28;20232;-44
2021/12/27 05:28:32;;;;;;;1.98;1.63;;;;;;;;;;5094682;28;20467;-42
2021/12/27 05:30:58;;;;;;;1.98;1.52;;;;;;;;;;5094116;28;20186;-42
2021/12/27 05:33:24;;;;;;;1.73;1.60;;;;;;;;;;5094518;28;20717;-42
2021/12/27 05:35:50;;;;;;;2.38;1.77;;;;;;;;;;5093063;28;20618;-42
2021/12/27 05:38:16;;;;;;;2.47;1.88;;;;;;;;;;5091591;28;20190;-42
2021/12/27 05:40:42;;;;;;;1.77;1.58;;;;;;;;;;5094265;28;20227;-42
2021/12/27 05:43:09;;;;;;;2.10;1.83;;;;;;;;;;5093248;28;20182;-42
2021/12/27 05:45:36;;;;;;;1.88;1.55;;;;;;;;;;5087993;28;20180;-42
2021/12/27 05:48:02;;;;;;;1.88;1.70;;;;;;;;;;5093184;28;20193;-42
2021/12/27 05:50:28;;;;;;;2.83;1.73;;;;;;;;;;5096126;28;20193;-42
2021/12/27 05:52:54;;;;;;;1.80;1.40;;;;;;;;;;5092258;28;20205;-42
2021/12/27 05:55:21;;;;;;;1.73;1.63;;;;;;;;;;5093041;28;20185;-42
2021/12/27 05:57:47;;;;;;;2.00;1.70;;;;;;;;;;5092673;28;20190;-42
2021/12/27 06:00:13;;;;;;;1.92;1.73;;;;;;;;;;5093247;28;20228;-43
2021/12/27 06:02:39;;;;;;;1.48;1.38;;;;;;;;;;5092883;28;20242;-42
2021/12/27 06:05:06;;;;;;;2.25;1.52;;;;;;;;;;5093259;28;20178;-42
2021/12/27 06:07:32;;;;;;;2.42;2.03;;;;;;;;;;5093011;28;20185;-42
2021/12/27 06:09:58;;;;;;;2.10;1.65;;;;;;;;;;5091244;28;20231;-42
2021/12/27 06:12:24;;;;;;;1.95;1.75;;;;;;;;;;5092144;28;20504;-42
2021/12/27 06:14:50;;;;;;;3.13;1.60;;;;;;;;;;5092778;28;20209;-42
2021/12/27 06:17:16;;;;;;;2.00;1.80;;;;;;;;;;5089366;28;20242;-42
2021/12/27 06:19:42;;;;;;;2.60;1.60;;;;;;;;;;5092951;28;20178;-43
2021/12/27 06:22:09;;;;;;;2.15;1.60;;;;;;;;;;5093104;28;20256;-42
2021/12/27 06:24:35;;;;;;;2.45;1.50;;;;;;;;;;5088582;28;20182;-42
2021/12/27 06:27:01;;;;;;;1.88;1.67;;;;;;;;;;5090766;28;20192;-42
2021/12/27 06:29:27;;;;;;;1.90;1.67;;;;;;;;;;5092691;28;20204;-42
2021/12/27 06:31:53;;;;;;;3.38;1.90;;;;;;;;;;5092072;28;20205;-42
2021/12/27 06:34:19;;;;;;;1.60;1.50;;;;;;;;;;5091976;28;20224;-42
2021/12/27 06:36:45;;;;;;;1.70;1.60;;;;;;;;;;5084986;28;20435;-42
2021/12/27 06:39:11;;;;;;;2.10;1.60;;;;;;;;;;5092419;28;20184;-43
2021/12/27 06:41:37;;;;;;;2.53;1.77;;;;;;;;;;5092654;28;20463;-42
2021/12/27 06:44:04;;;;;;;4.15;2.10;;;;;;;;;;5092232;28;20174;-42
2021/12/27 06:46:30;;;;;;;6.18;2.42;;;;;;;;;;5088982;28;20522;-42
2021/12/27 06:48:56;;;;;;;5.00;2.50;;;;;;;;;;5091708;28;20294;-42
2021/12/27 06:51:22;;;;;;;4.85;2.38;;;;;;;;;;5090418;28;20205;-42
2021/12/27 06:53:48;;;;;;;3.78;2.30;;;;;;;;;;5091403;28;20476;-42
2021/12/27 06:56:15;;;;;;;5.35;2.58;;;;;;;;;;5091979;28;20309;-42
2021/12/27 06:58:41;;;;;;;8.15;2.40;;;;;;;;;;5092934;28;20225;-42
2021/12/27 07:01:08;;;;;;;6.45;2.85;;;;;;;;;;5085450;28;20210;-42
2021/12/27 07:03:35;;;;;;;4.40;2.25;;;;;;;;;;5091972;28;20613;-45
2021/12/27 07:06:01;;;;;;;5.45;2.50;;;;;;;;;;5074644;28;20182;-45
2021/12/27 07:08:27;;;;;;;5.88;2.42;;;;;;;;;;5089300;28;20268;-45
2021/12/27 07:10:53;;;;;;;6.22;2.53;;;;;;;;;;5092304;28;20820;-44
2021/12/27 07:13:19;;;;;;;7.82;2.42;;;;;;;;;;5092957;28;20182;-45
2021/12/27 07:15:45;;;;;;;8.07;2.70;;;;;;;;;;5091456;28;20182;-45
2021/12/27 07:18:12;;;;;;;6.35;2.63;;;;;;;;;;5094452;28;20174;-45
2021/12/27 07:20:38;;;;;;;8.02;2.40;;;;;;;;;;5092544;28;20837;-45
2021/12/27 07:23:04;;;;;;;7.50;2.40;;;;;;;;;;5090258;28;20192;-45
2021/12/27 07:25:30;;;;;;;4.93;2.17;;;;;;;;;;5084773;28;20193;-45
2021/12/27 07:27:56;;;;;;;7.10;2.28;;;;;;;;;;5085678;28;20186;-45
2021/12/27 07:30:22;;;;;;;7.95;2.42;;;;;;;;;;5085554;28;20210;-44
2021/12/27 07:32:48;;;;;;;5.38;2.50;;;;;;;;;;5084817;28;20546;-45
2021/12/27 07:35:15;;;;;;;4.85;2.28;;;;;;;;;;5085002;28;20603;-45
2021/12/27 07:37:41;;;;;;;8.40;2.92;;;;;;;;;;5093167;28;20189;-45
2021/12/27 07:40:07;;;;;;;7.93;2.20;;;;;;;;;;5074957;28;20185;-44
2021/12/27 07:42:34;;;;;;;5.40;2.30;;;;;;;;;;5092942;28;20190;-45
2021/12/27 07:45:00;;;;;;;6.70;2.70;;;;;;;;;;5084085;28;20489;-44
2021/12/27 07:47:26;;;;;;;5.38;2.25;;;;;;;;;;5085414;28;20204;-45
2021/12/27 07:49:52;;;;;;;3.72;2.03;;;;;;;;;;5116888;28;20564;-45
2021/12/27 07:52:18;;;;;;;4.82;2.30;;;;;;;;;;5122556;28;20246;-45
2021/12/27 07:54:44;;;;;;;9.20;2.53;;;;;;;;;;5104425;28;20177;-45
2021/12/27 07:57:11;;;;;;;7.95;3.10;;;;;;;;;;5113683;28;20208;-44
2021/12/27 07:59:37;;;;;;;4.70;2.53;;;;;;;;;;5118416;28;20180;-44
2021/12/27 08:02:03;;;;;;;4.97;2.67;;;;;;;;;;5111337;28;20208;-44
2021/12/27 08:04:29;;;;;;;5.20;2.35;;;;;;;;;;5117774;28;20185;-44
2021/12/27 08:06:55;;;;;;;3.00;2.00;;;;;;;;;;5116230;28;20214;-44
2021/12/27 08:09:21;;;;;;;5.38;2.28;;;;;;;;;;5120228;28;20195;-44
2021/12/27 08:11:47;;;;;;;3.70;2.15;;;;;;;;;;5111869;28;20204;-45
2021/12/27 08:14:13;;;;;;;3.80;2.53;;;;;;;;;;5120382;28;20584;-45
2021/12/27 08:16:39;;;;;;;3.42;2.22;;;;;;;;;;5111138;28;20173;-44
2021/12/27 08:19:06;;;;;;;3.38;2.20;;;;;;;;;;5115199;28;20275;-44
2021/12/27 08:21:33;;;;;;;3.40;2.50;;;;;;;;;;5119110;28;20186;-44
2021/12/27 08:23:59;;;;;;;5.35;2.08;;;;;;;;;;5128458;28;20579;-45
2021/12/27 08:26:25;;;;;;;3.78;2.30;;;;;;;;;;5112738;28;20196;-44
2021/12/27 08:28:52;;;;;;;5.65;2.22;;;;;;;;;;5116841;27;20181;-44
2021/12/27 08:31:18;;;;;;;3.72;2.00;;;;;;;;;;5115455;28;20204;-44
2021/12/27 08:33:44;;;;;;;6.15;2.25;;;;;;;;;;5116899;27;20172;-44
2021/12/27 08:36:11;;;;;;;4.57;2.45;;;;;;;;;;5129488;27;20766;-44
2021/12/27 08:38:37;;;;;;;2.58;1.85;;;;;;;;;;5118848;27;20264;-44
2021/12/27 08:41:03;;;;;;;6.45;2.20;;;;;;;;;;5115153;28;20181;-44
2021/12/27 08:43:30;;;;;;;6.57;2.08;;;;;;;;;;5118029;27;20219;-44
2021/12/27 08:45:57;;;;;;;6.45;2.30;;;;;;;;;;5117366;27;20181;-44
2021/12/27 08:48:23;;;;;;;5.53;2.10;;;;;;;;;;5090597;28;20564;-44
2021/12/27 08:50:49;;;;;;;5.10;2.22;;;;;;;;;;5092234;28;20189;-44
2021/12/27 08:53:15;;;;;;;7.28;2.53;;;;;;;;;;5094035;28;20627;-44
2021/12/27 08:55:41;;;;;;;3.40;1.80;;;;;;;;;;5093330;28;20186;-44
2021/12/27 08:58:07;;;;;;;5.10;2.13;;;;;;;;;;5091912;28;20220;-44
2021/12/27 09:00:34;;;;;;;3.15;2.15;;;;;;;;;;5092523;28;20231;-44
2021/12/27 09:03:00;;;;;;;5.13;2.50;;;;;;;;;;5095077;28;20544;-44
2021/12/27 09:05:26;;;;;;;4.72;2.17;;;;;;;;;;5094245;28;20205;-44
2021/12/27 09:07:52;;;;;;;8.88;2.47;;;;;;;;;;5093936;28;20197;-44
2021/12/27 09:10:18;;;;;;;4.55;2.30;;;;;;;;;;5094264;28;20217;-44
2021/12/27 09:12:44;;;;;;;2.85;2.03;;;;;;;;;;5095223;28;20216;-44
2021/12/27 09:15:10;;;;;;;5.53;1.90;;;;;;;;;;5094205;28;20185;-44
2021/12/27 09:17:36;;;;;;;4.10;2.20;;;;;;;;;;5094647;28;20448;-44
2021/12/27 09:20:03;;;;;;;6.35;2.38;;;;;;;;;;5094406;28;20174;-44
2021/12/27 09:22:29;;;;;;;1.92;1.70;;;;;;;;;;5094809;28;20193;-44
2021/12/27 09:24:56;;;;;;;4.20;2.40;;;;;;;;;;5094057;28;20200;-44
2021/12/27 09:27:22;;;;;;;4.47;2.42;;;;;;;;;;5093701;28;20198;-44
2021/12/27 09:29:49;;;;;;;3.65;2.28;;;;;;;;;;5094248;28;20190;-44
2021/12/27 09:32:15;;;;;;;3.45;1.90;;;;;;;;;;5091868;28;20217;-44
2021/12/27 09:34:41;;;;;;;2.92;1.80;;;;;;;;;;5093256;28;20235;-44
2021/12/27 09:37:08;;;;;;;3.08;2.10;;;;;;;;;;5094316;28;20193;-44
2021/12/27 09:39:34;;;;;;;2.60;1.90;;;;;;;;;;5093262;28;20181;-44
2021/12/27 09:42:00;;;;;;;4.38;2.03;;;;;;;;;;5093585;28;20213;-44
2021/12/27 09:44:26;;;;;;;2.65;1.98;;;;;;;;;;5092879;28;20265;-43
2021/12/27 09:46:52;;;;;;;2.90;1.90;;;;;;;;;;5091332;28;21688;-44
2021/12/27 09:49:19;;;;;;;4.60;2.10;;;;;;;;;;5095453;28;20267;-43
2021/12/27 09:51:46;;;;;;;2.72;1.80;;;;;;;;;;5091846;28;20197;-44
2021/12/27 09:54:13;;;;;;;5.00;2.15;;;;;;;;;;5093374;28;20174;-43
2021/12/27 09:56:39;;;;;;;6.72;2.33;;;;;;;;;;5091905;28;20210;-43
2021/12/27 09:59:05;;;;;;;3.30;1.80;;;;;;;;;;5092736;28;20170;-43
2021/12/27 10:01:32;;;;;;;2.75;1.73;;;;;;;;;;5093394;28;20532;-44
2021/12/27 10:03:59;;;;;;;3.97;2.50;;;;;;;;;;5084759;28;20185;-43
2021/12/27 10:06:26;;;;;;;3.58;1.65;;;;;;;;;;5094283;28;20250;-44
2021/12/27 10:08:54;;;;;;;5.55;1.83;;;;;;;;;;5092038;28;20185;-43
2021/12/27 10:11:20;;;;;;;2.95;1.90;;;;;;;;;;5092991;28;20206;-44
2021/12/27 10:13:58;;;;;;;3.30;2.22;;;;;;;;;;5094835;28;20503;-43
2021/12/27 10:16:24;;;;;;;4.38;2.00;;;;;;;;;;5093725;28;20227;-43
2021/12/27 10:18:55;;;;;;;2.38;2.03;;;;;;;;;;5092490;28;20530;-43
2021/12/27 10:21:21;;;;;;;2.88;1.90;;;;;;;;;;5093400;28;20231;-43
2021/12/27 10:23:47;;;;;;;2.13;1.92;;;;;;;;;;5090098;28;20448;-43
2021/12/27 10:26:19;;;;;;;4.43;1.75;;;;;;;;;;5088810;28;20711;-43
2021/12/27 10:28:45;;;;;;;4.38;2.08;;;;;;;;;;5091789;28;20201;-44
2021/12/27 10:31:11;;;;;;;7.10;2.10;;;;;;;;;;5090458;28;20186;-43
2021/12/27 10:33:37;;;;;;;2.45;2.20;;;;;;;;;;5092494;28;20196;-43
2021/12/27 10:36:04;;;;;;;2.78;2.05;;;;;;;;;;5092372;28;20261;-44
2021/12/27 10:38:31;;;;;;;2.90;2.13;;;;;;;;;;5090617;28;20186;-43
2021/12/27 10:41:03;;;;;;;5.07;2.60;;;;;;;;;;5091890;28;20560;-43
2021/12/27 10:43:38;;;;;;;3.97;2.22;;;;;;;;;;5090760;28;20560;-43
2021/12/27 10:46:05;;;;;;;5.63;2.08;;;;;;;;;;5090204;28;20188;-43
2021/12/27 10:48:32;;;;;;;4.35;2.28;;;;;;;;;;5093646;28;20258;-43
2021/12/27 10:50:58;;;;;;;5.18;2.20;;;;;;;;;;5091774;28;20182;-43
2021/12/27 10:53:24;;;;;;;4.00;2.53;;;;;;;;;;5090515;28;20214;-44
2021/12/27 10:55:50;;;;;;;5.70;2.20;;;;;;;;;;5091959;28;20224;-43
2021/12/27 10:58:19;;;;;;;2.97;2.22;;;;;;;;;;5093190;28;20278;-43
2021/12/27 11:00:56;;;;;;;6.30;2.20;;;;;;;;;;5091233;28;20468;-43
2021/12/27 11:03:23;;;;;;;2.72;2.20;;;;;;;;;;5090883;28;20178;-43
2021/12/27 11:05:50;;;;;;;2.65;2.10;;;;;;;;;;5091706;28;20185;-43
2021/12/27 11:08:16;;;;;;;6.43;2.17;;;;;;;;;;5075609;28;20192;-43
2021/12/27 11:10:42;;;;;;;4.40;2.30;;;;;;;;;;5090664;28;20224;-43
2021/12/27 11:13:09;;;;;;;4.03;2.10;;;;;;;;;;5091926;28;20217;-43
2021/12/27 11:15:36;;;;;;;3.08;2.10;;;;;;;;;;5088906;28;20177;-43
2021/12/27 11:18:02;;;;;;;4.50;2.67;;;;;;;;;;5091847;28;20200;-43
2021/12/27 11:20:29;;;;;;;4.97;2.40;;;;;;;;;;5073819;28;20181;-43
2021/12/27 11:22:58;;;;;;;4.28;2.20;;;;;;;;;;5092821;28;20188;-43
2021/12/27 11:25:30;;;;;;;4.70;2.20;;;;;;;;;;5089826;28;20564;-41
2021/12/27 11:27:56;;;;;;;6.25;2.55;;;;;;;;;;5092464;28;20185;-41
2021/12/27 11:30:25;;;;;;;2.53;2.20;;;;;;;;;;5090834;28;20591;-41
2021/12/27 11:32:59;;;;;;;4.82;2.10;;;;;;;;;;5092280;28;20198;-41
2021/12/27 11:35:25;;;;;;;5.20;2.40;;;;;;;;;;5091203;28;20173;-41
2021/12/27 11:37:52;;;;;;;2.50;2.13;;;;;;;;;;5090567;28;20193;-47
2021/12/27 11:40:18;;;;;;;4.43;2.30;;;;;;;;;;5092010;28;20208;-47
2021/12/27 11:42:56;;;;;;;3.08;2.25;;;;;;;;;;5091929;28;20235;-47
2021/12/27 11:45:38;;;;;;;5.10;2.28;;;;;;;;;;5092058;28;20189;-47
2021/12/27 11:48:10;;;;;;;4.80;2.67;;;;;;;;;;5088428;28;20568;-47
2021/12/27 11:50:56;;;;;;;4.43;2.22;;;;;;;;;;5090614;28;20190;-47
2021/12/27 11:53:33;;;;;;;6.20;2.70;;;;;;;;;;5074244;28;20239;-47
2021/12/27 11:55:59;;;;;;;4.03;2.25;;;;;;;;;;5087923;28;20197;-47
2021/12/27 11:58:35;;;;;;;6.70;2.30;;;;;;;;;;5091220;28;20264;-49
2021/12/27 12:01:03;;;;;;;2.35;2.15;;;;;;;;;;5068443;28;20572;-49
2021/12/27 12:03:37;;;;;;;3.80;2.20;;;;;;;;;;5094065;28;20444;-48
2021/12/27 12:06:04;;;;;;;4.15;2.40;;;;;;;;;;5095534;28;20179;-48
2021/12/27 12:08:39;;;;;;;5.20;2.55;;;;;;;;;;5096269;28;20190;-47
2021/12/27 12:11:07;;;;;;;3.10;2.58;;;;;;;;;;5088681;28;20181;-47
2021/12/27 12:13:41;;;;;;;3.63;2.20;;;;;;;;;;5095895;28;20211;-48
2021/12/27 12:16:07;;;;;;;3.90;2.30;;;;;;;;;;5092154;28;20213;-47
2021/12/27 12:18:35;;;;;;;6.60;2.03;;;;;;;;;;5095488;28;20697;-48
2021/12/27 12:21:01;;;;;;;8.48;2.42;;;;;;;;;;5095666;28;20220;-48
2021/12/27 12:23:28;;;;;;;3.53;2.25;;;;;;;;;;5096280;28;20213;-48
2021/12/27 12:25:58;;;;;;;4.57;2.10;;;;;;;;;;5095153;28;20185;-48
2021/12/27 12:28:24;;;;;;;4.30;2.47;;;;;;;;;;5088143;28;20182;-47
2021/12/27 12:30:51;;;;;;;3.92;2.30;;;;;;;;;;5095184;28;20186;-48
2021/12/27 12:33:18;;;;;;;4.25;2.38;;;;;;;;;;5095013;28;20218;-47
2021/12/27 12:35:46;;;;;;;5.53;2.33;;;;;;;;;;5095581;28;20476;-48
2021/12/27 12:38:12;;;;;;;4.43;2.47;;;;;;;;;;5094577;28;20178;-48
2021/12/27 12:40:38;;;;;;;3.33;2.28;;;;;;;;;;5095577;28;20608;-48
2021/12/27 12:43:05;;;;;;;4.88;2.50;;;;;;;;;;5096167;28;20280;-48
2021/12/27 12:45:31;;;;;;;5.97;2.50;;;;;;;;;;5094392;28;20193;-54
2021/12/27 12:47:58;;;;;;;5.47;2.42;;;;;;;;;;5091766;28;20207;-48
2021/12/27 12:50:24;;;;;;;3.08;2.22;;;;;;;;;;5094412;28;20224;-48
2021/12/27 12:53:03;;;;;;;3.40;2.22;;;;;;;;;;5095014;28;20201;-49
2021/12/27 12:55:33;;;;;;;4.72;2.60;;;;;;;;;;5094881;28;20170;-49
2021/12/27 12:57:59;;;;;;;5.60;2.60;;;;;;;;;;5094647;28;20198;-50
2021/12/27 13:00:30;;;;;;;5.10;2.10;;;;;;;;;;5093975;28;20193;-50
2021/12/27 13:03:12;;;;;;;6.22;2.67;;;;;;;;;;5094254;28;20242;-49
2021/12/27 13:05:38;;;;;;;6.65;2.70;;;;;;;;;;5094931;28;20568;-49
2021/12/27 13:08:04;;;;;;;6.70;2.85;;;;;;;;;;5091393;28;20185;-50
2021/12/27 13:10:32;;;;;;;5.53;2.55;;;;;;;;;;5093613;28;20178;-49
2021/12/27 13:12:59;;;;;;;9.65;2.72;;;;;;;;;;5077148;28;20300;-50
2021/12/27 13:15:28;;;;;;;4.28;2.40;;;;;;;;;;5094525;28;20557;-49
2021/12/27 13:18:00;;;;;;;3.90;2.78;;;;;;;;;;5092596;28;20205;-50
2021/12/27 13:20:27;;;;;;;7.18;2.75;;;;;;;;;;5094486;28;20217;-50
2021/12/27 13:22:56;;;;;;;8.32;2.92;;;;;;;;;;5094613;28;20567;-50
2021/12/27 13:25:29;;;;;;;4.32;2.55;;;;;;;;;;5091927;28;20552;-49
2021/12/27 13:28:10;;;;;;;6.20;2.45;;;;;;;;;;5092129;28;20177;-49
2021/12/27 13:30:55;;;;;;;4.25;3.03;;;;;;;;;;5090776;28;21709;-50
2021/12/27 13:33:25;;;;;;;2.50;2.30;;;;;;;;;;5092404;28;20237;-50
2021/12/27 13:35:52;;;;;;;4.10;2.45;;;;;;;;;;5088108;28;20273;-50
2021/12/27 13:38:20;;;;;;;4.82;2.88;;;;;;;;;;5088860;28;20192;-50
2021/12/27 13:40:47;;;;;;;4.38;2.60;;;;;;;;;;5094606;28;20174;-49
2021/12/27 13:43:13;;;;;;;5.20;2.70;;;;;;;;;;5093325;28;20269;-49
2021/12/27 13:45:44;;;;;;;4.30;2.53;;;;;;;;;;5091531;28;20512;-49
2021/12/27 13:48:10;;;;;;;4.38;2.72;;;;;;;;;;5106463;27;20284;-49
2021/12/27 13:50:37;;;;;;;3.17;2.53;;;;;;;;;;5114270;28;20226;-49
2021/12/27 13:53:14;;;;;;;9.02;2.97;;;;;;;;;;5115121;28;20208;-48
2021/12/27 13:55:40;;;;;;;4.47;2.53;;;;;;;;;;5114362;28;20185;-49
2021/12/27 13:58:16;;;;;;;6.28;2.40;;;;;;;;;;5113359;28;20342;-49
2021/12/27 14:00:43;;;;;;;5.65;2.90;;;;;;;;;;5112757;28;20177;-50
2021/12/27 14:03:25;;;;;;;6.43;2.70;;;;;;;;;;5113457;27;20177;-49
2021/12/27 14:05:55;;;;;;;2.90;2.60;;;;;;;;;;5109141;28;20322;-49
2021/12/27 14:08:21;;;;;;;5.50;2.63;;;;;;;;;;5114037;28;20241;-49
2021/12/27 14:11:03;;;;;;;9.07;3.60;;;;;;;;;;5110948;28;20628;-49
2021/12/27 14:13:44;;;;;;;6.25;4.43;;;;;;;;;;5112004;28;20468;-49
2021/12/27 14:16:28;;;;;;;7.85;4.50;;;;;;;;;;5112788;28;20204;-49
2021/12/27 14:19:06;;;;;;;18.05;7.57;;;;;;;;;;5106716;28;20543;-49
2021/12/27 14:21:33;;;;;;;19.23;10.75;;;;;;;;;;5113202;28;20185;-49
2021/12/27 14:24:04;;;;;;;24.35;12.27;;;;;;;;;;5113484;28;20177;-49
2021/12/27 14:26:30;;;;;;;21.63;11.77;;;;;;;;;;5113028;28;20191;-50
2021/12/27 14:29:14;;;;;;;16.42;9.63;;;;;;;;;;5112386;28;20181;-50
2021/12/27 14:31:40;;;;;;;15.35;9.00;;;;;;;;;;5109976;28;20537;-49
2021/12/27 14:34:06;;;;;;;18.08;8.82;;;;;;;;;;5113623;28;20269;-50
2021/12/27 14:36:32;;;;;;;13.63;7.40;;;;;;;;;;5113304;28;20264;-49
2021/12/27 14:38:58;;;;;;;13.48;7.60;;;;;;;;;;5113168;28;20252;-49
2021/12/27 14:41:24;;;;;;;12.35;7.43;;;;;;;;;;5111682;28;20443;-49
2021/12/27 14:43:50;;;;;;;10.77;6.50;;;;;;;;;;5113166;28;20184;-50
2021/12/27 14:46:16;;;;;;;11.50;6.55;;;;;;;;;;5110401;28;20497;-49
2021/12/27 14:48:42;;;;;;;11.45;6.75;;;;;;;;;;5086968;28;20186;-50